createdAt,value
2022-11-09T00:00:52.593Z,13.15
2022-11-09T00:03:59.050Z,12.07
2022-11-09T00:07:01.808Z,12.57
2022-11-09T00:10:04.407Z,13.63
2022-11-09T00:13:06.617Z,12.30
2022-11-09T00:16:10.978Z,12.05
2022-11-09T00:19:14.169Z,12.90
2022-11-09T00:22:16.341Z,12.18
2022-11-09T00:25:18.483Z,12.18
2022-11-09T00:28:20.743Z,13.52
2022-11-09T00:31:24.631Z,12.57
2022-11-09T00:34:45.463Z,12.18
2022-11-09T00:37:47.810Z,10.90
2022-11-09T00:40:49.983Z,12.82
2022-11-09T00:43:52.905Z,11.48
2022-11-09T00:46:55.164Z,12.90
2022-11-09T00:56:55.590Z,11.65
2022-11-09T00:59:57.783Z,13.35
2022-11-09T01:03:00.826Z,12.07
2022-11-09T01:06:03.350Z,10.80
2022-11-09T01:09:05.727Z,11.55
2022-11-09T01:12:07.920Z,12.68
2022-11-09T01:15:10.287Z,11.93
2022-11-09T01:18:12.567Z,11.68
2022-11-09T01:21:15.679Z,11.07
2022-11-09T01:24:17.779Z,12.02
2022-11-09T01:27:19.916Z,11.55
2022-11-09T01:30:22.090Z,12.27
2022-11-09T01:33:24.512Z,11.13
2022-11-09T01:36:26.723Z,10.90
2022-11-09T01:39:28.887Z,12.02
2022-11-09T01:42:35.546Z,11.20
2022-11-09T01:45:37.974Z,10.98
2022-11-09T01:48:48.743Z,11.32
2022-11-09T01:51:59.592Z,11.55
2022-11-09T01:55:11.826Z,10.82
2022-11-09T01:58:23.281Z,11.13
2022-11-09T02:01:26.094Z,11.02
2022-11-09T02:04:35.591Z,11.32
2022-11-09T02:07:38.938Z,11.35
2022-11-09T02:10:45.636Z,11.23
2022-11-09T02:14:00.027Z,11.13
2022-11-09T02:17:03.505Z,11.55
2022-11-09T02:20:14.424Z,11.27
2022-11-09T02:23:17.843Z,11.20
2022-11-09T02:26:36.005Z,11.88
2022-11-09T02:29:41.873Z,12.00
2022-11-09T02:32:44.313Z,11.57
2022-11-09T02:35:46.500Z,12.10
2022-11-09T02:38:49.951Z,12.15
2022-11-09T02:42:03.571Z,12.70
2022-11-09T02:45:10.291Z,12.20
2022-11-09T02:48:14.693Z,11.82
2022-11-09T02:51:16.903Z,12.48
2022-11-09T02:54:19.120Z,13.95
2022-11-09T02:57:21.330Z,14.80
2022-11-09T03:00:25.022Z,12.88
2022-11-09T03:03:27.753Z,13.20
2022-11-09T03:06:36.058Z,14.05
2022-11-09T03:09:44.313Z,13.25
2022-11-09T03:12:46.461Z,13.80
2022-11-09T03:15:50.020Z,12.48
2022-11-09T03:18:52.918Z,13.18
2022-11-09T03:21:55.381Z,13.98
2022-11-09T03:24:59.252Z,14.68
2022-11-09T03:28:04.345Z,13.05
2022-11-09T03:31:07.459Z,14.68
2022-11-09T03:34:09.829Z,14.48
2022-11-09T03:37:12.197Z,13.85
2022-11-09T03:40:14.522Z,14.55
2022-11-09T03:43:17.959Z,14.45
2022-11-09T03:46:20.565Z,13.18
2022-11-09T03:49:23.965Z,13.27
2022-11-09T03:52:26.135Z,12.60
2022-11-09T03:55:29.184Z,14.88
2022-11-09T03:58:31.381Z,14.43
2022-11-09T04:01:33.640Z,14.15
2022-11-09T04:04:35.827Z,14.02
2022-11-09T04:07:38.689Z,14.25
2022-11-09T04:10:40.856Z,14.55
2022-11-09T04:13:43.366Z,14.77
2022-11-09T04:16:45.511Z,12.57
2022-11-09T04:19:47.667Z,13.07
2022-11-09T04:23:01.011Z,13.13
2022-11-09T04:26:03.197Z,14.13
2022-11-09T04:29:05.422Z,14.70
2022-11-09T04:32:07.596Z,12.88
2022-11-09T04:35:09.855Z,13.73
2022-11-09T04:38:13.954Z,13.40
2022-11-09T04:41:16.387Z,14.18
2022-11-09T04:44:18.663Z,14.23
2022-11-09T04:47:20.830Z,13.68
2022-11-09T04:50:22.985Z,13.20
2022-11-09T04:53:27.083Z,13.13
2022-11-09T04:56:29.257Z,13.02
2022-11-09T04:59:31.426Z,12.32
2022-11-09T05:02:33.676Z,12.98
2022-11-09T05:05:37.912Z,13.00
2022-11-09T05:08:40.132Z,14.48
2022-11-09T05:11:42.324Z,12.38
2022-11-09T05:14:44.482Z,12.70
2022-11-09T05:17:46.757Z,13.02
2022-11-09T05:20:48.950Z,13.60
2022-11-09T05:24:00.603Z,12.27
2022-11-09T05:27:05.136Z,12.75
2022-11-09T05:30:08.157Z,14.43
2022-11-09T05:33:10.575Z,12.20
2022-11-09T05:36:12.725Z,12.40
2022-11-09T05:39:14.882Z,12.52
2022-11-09T05:42:17.149Z,13.55
2022-11-09T05:48:42.839Z,13.13
2022-11-09T05:51:45.055Z,13.25
2022-11-09T05:54:47.266Z,12.98
2022-11-09T05:57:49.477Z,14.40
2022-11-09T06:00:51.635Z,14.05
2022-11-09T06:03:54.615Z,13.52
2022-11-09T06:06:57.185Z,13.68
2022-11-09T06:09:59.604Z,13.25
2022-11-09T06:13:02.053Z,13.20
2022-11-09T06:16:05.903Z,14.75
2022-11-09T06:19:08.126Z,14.30
2022-11-09T06:22:10.401Z,13.23
2022-11-09T06:25:12.548Z,13.88
2022-11-09T06:28:14.720Z,13.68
2022-11-09T06:31:17.338Z,13.43
2022-11-09T06:34:19.555Z,13.57
2022-11-09T06:37:21.758Z,14.30
2022-11-09T06:40:24.056Z,13.43
2022-11-09T06:43:27.169Z,13.90
2022-11-09T06:46:29.282Z,15.13
2022-11-09T06:49:31.530Z,14.32
2022-11-09T06:52:33.705Z,14.70
2022-11-09T06:55:36.351Z,13.82
2022-11-09T06:58:38.752Z,12.65
2022-11-09T07:01:40.988Z,14.75
2022-11-09T07:04:43.202Z,14.77
2022-11-09T07:07:45.331Z,14.32
2022-11-09T07:10:47.659Z,14.77
2022-11-09T07:13:53.419Z,13.95
2022-11-09T07:16:58.487Z,13.95
2022-11-09T07:20:01.023Z,15.45
2022-11-09T07:23:03.221Z,15.88
2022-11-09T07:26:05.562Z,15.32
2022-11-09T07:29:07.973Z,15.48
2022-11-09T07:32:10.376Z,16.13
2022-11-09T07:35:12.584Z,16.02
2022-11-09T07:38:19.825Z,16.08
2022-11-09T07:41:22.413Z,15.23
2022-11-09T07:44:24.609Z,16.95
2022-11-09T07:47:26.766Z,17.17
2022-11-09T07:50:30.820Z,17.65
2022-11-09T07:53:33.360Z,13.88
2022-11-09T07:56:36.342Z,16.60
2022-11-09T07:59:38.599Z,16.98
2022-11-09T08:02:41.077Z,16.80
2022-11-09T08:05:43.205Z,17.25
2022-11-09T08:08:45.810Z,17.38
2022-11-09T08:11:48.013Z,16.10
2022-11-09T08:14:50.248Z,17.92
2022-11-09T08:17:52.749Z,18.05
2022-11-09T08:20:55.470Z,18.23
2022-11-09T08:24:00.843Z,17.73
2022-11-09T08:27:03.013Z,18.15
2022-11-09T08:30:05.458Z,15.95
2022-11-09T08:33:07.909Z,18.20
2022-11-09T08:36:15.246Z,18.15
2022-11-09T08:39:17.610Z,16.55
2022-11-09T08:42:19.836Z,19.20
2022-11-09T08:45:22.322Z,18.60
2022-11-09T08:48:24.724Z,16.83
2022-11-09T08:51:26.960Z,20.23
2022-11-09T08:54:29.134Z,18.02
2022-11-09T08:57:31.706Z,17.95
2022-11-09T09:00:34.061Z,18.40
2022-11-09T09:03:36.397Z,19.60
2022-11-09T09:06:38.668Z,18.23
2022-11-09T09:09:40.972Z,19.23
2022-11-09T09:12:43.600Z,18.10
2022-11-09T09:15:45.743Z,19.17
2022-11-09T09:18:48.943Z,22.10
2022-11-09T09:21:51.175Z,18.73
2022-11-09T09:24:53.868Z,19.95
2022-11-09T09:27:56.151Z,21.52
2022-11-09T09:30:59.887Z,19.65
2022-11-09T09:34:02.420Z,20.77
2022-11-09T09:37:04.603Z,21.23
2022-11-09T09:40:07.342Z,21.65
2022-11-09T09:43:28.799Z,22.00
2022-11-09T09:46:40.611Z,22.25
2022-11-09T09:50:18.979Z,22.33
2022-11-09T09:53:33.986Z,22.15
2022-11-09T09:56:40.485Z,21.60
2022-11-09T09:59:45.033Z,23.63
2022-11-09T10:02:47.335Z,22.02
2022-11-09T10:06:05.052Z,20.42
2022-11-09T10:09:19.818Z,21.13
2022-11-09T10:12:34.015Z,25.33
2022-11-09T10:15:50.932Z,26.90
2022-11-09T10:19:34.321Z,21.85
2022-11-09T10:22:48.530Z,25.90
2022-11-09T10:26:04.498Z,23.70
2022-11-09T10:29:25.645Z,25.17
2022-11-09T10:32:31.644Z,20.05
2022-11-09T10:35:50.444Z,26.25
2022-11-09T10:38:55.529Z,23.00
2022-11-09T10:42:16.704Z,26.15
2022-11-09T10:45:40.312Z,26.92
2022-11-09T10:49:22.033Z,26.75
2022-11-09T10:52:47.254Z,24.98
2022-11-09T10:56:22.053Z,26.38
2022-11-09T10:59:56.830Z,26.58
2022-11-09T11:03:18.728Z,28.55
2022-11-09T11:06:42.535Z,25.92
2022-11-09T11:10:15.269Z,26.30
2022-11-09T11:13:35.741Z,32.17
2022-11-09T11:16:56.635Z,39.38
2022-11-09T11:20:30.012Z,41.85
2022-11-09T11:24:17.898Z,35.85
2022-11-09T11:27:44.436Z,43.78
2022-11-09T11:31:07.951Z,39.10
2022-11-09T11:34:57.944Z,43.45
2022-11-09T11:38:16.051Z,41.65
2022-11-09T11:41:55.546Z,40.00
2022-11-09T11:45:43.264Z,44.55
2022-11-09T11:49:32.464Z,37.58
2022-11-09T11:53:14.282Z,39.95
2022-11-09T11:56:46.888Z,37.53
2022-11-09T12:00:20.448Z,38.65
2022-11-09T12:04:11.689Z,38.65
2022-11-09T12:07:57.564Z,39.35
2022-11-09T12:11:38.428Z,38.05
2022-11-09T12:15:20.619Z,42.13
2022-11-09T12:19:05.972Z,40.03
2022-11-09T12:22:34.372Z,37.75
2022-11-09T12:26:01.117Z,36.30
2022-11-09T12:29:27.349Z,37.28
2022-11-09T12:32:54.108Z,39.35
2022-11-09T12:36:20.893Z,37.03
2022-11-09T12:39:52.734Z,38.30
2022-11-09T12:43:46.688Z,36.67
2022-11-09T12:47:15.579Z,34.47
2022-11-09T12:50:37.844Z,33.88
2022-11-09T12:54:00.786Z,35.30
2022-11-09T12:57:29.831Z,32.88
2022-11-09T13:00:56.071Z,32.88
2022-11-09T13:04:19.731Z,32.22
2022-11-09T13:07:53.183Z,30.98
2022-11-09T13:11:28.109Z,30.75
2022-11-09T13:14:48.671Z,32.85
2022-11-09T13:18:45.269Z,32.42
2022-11-09T13:22:34.856Z,33.25
2022-11-09T13:25:55.685Z,32.27
2022-11-09T13:29:23.961Z,28.20
2022-11-09T13:33:07.197Z,34.00
2022-11-09T13:36:27.589Z,32.10
2022-11-09T13:39:48.383Z,29.38
2022-11-09T13:43:09.050Z,29.35
2022-11-09T13:46:34.891Z,30.58
2022-11-09T13:49:56.065Z,29.02
2022-11-09T13:54:02.572Z,30.95
2022-11-09T13:57:24.854Z,28.08
2022-11-09T14:00:47.588Z,30.75
2022-11-09T14:04:30.182Z,30.75
2022-11-09T14:07:50.974Z,27.13
2022-11-09T14:11:44.133Z,31.02
2022-11-09T14:15:24.871Z,25.88
2022-11-09T14:19:11.058Z,27.52
2022-11-09T14:22:35.506Z,27.42
2022-11-09T14:25:56.461Z,29.35
2022-11-09T14:29:25.661Z,26.00
2022-11-09T14:32:54.216Z,27.03
2022-11-09T14:36:15.124Z,29.13
2022-11-09T14:39:37.345Z,26.75
2022-11-09T14:43:22.723Z,26.33
2022-11-09T14:46:43.569Z,27.02
2022-11-09T14:50:04.579Z,26.35
2022-11-09T14:53:33.945Z,24.42
2022-11-09T14:56:55.529Z,26.25
2022-11-09T15:00:35.518Z,24.70
2022-11-09T15:04:17.119Z,21.70
2022-11-09T15:07:37.838Z,25.92
2022-11-09T15:10:58.433Z,25.95
2022-11-09T15:14:52.625Z,23.63
2022-11-09T15:18:33.468Z,24.52
2022-11-09T15:21:55.266Z,22.33
2022-11-09T15:25:18.899Z,22.83
2022-11-09T15:28:47.655Z,21.85
2022-11-09T15:32:11.090Z,20.83
2022-11-09T15:35:31.968Z,21.90
2022-11-09T15:39:00.853Z,21.38
2022-11-09T15:42:21.593Z,19.17
2022-11-09T15:45:42.581Z,21.45
2022-11-09T15:49:25.529Z,20.25
2022-11-09T15:52:46.358Z,20.05
2022-11-09T15:56:10.548Z,20.25
2022-11-09T15:59:31.287Z,18.60
2022-11-09T16:02:52.106Z,17.67
2022-11-09T16:06:19.099Z,16.27
2022-11-09T16:09:40.960Z,17.08
2022-11-09T16:13:02.179Z,17.73
2022-11-09T16:16:23.210Z,14.93
2022-11-09T16:19:44.341Z,16.08
2022-11-09T16:23:05.268Z,16.00
2022-11-09T16:26:26.740Z,14.40
2022-11-09T16:29:47.434Z,15.65
2022-11-09T16:33:08.413Z,14.15
2022-11-09T16:36:29.685Z,13.77
2022-11-09T16:39:51.117Z,14.25
2022-11-09T16:43:11.806Z,13.85
2022-11-09T16:46:33.741Z,13.85
2022-11-09T16:49:54.497Z,14.07
2022-11-09T16:53:15.470Z,13.65
2022-11-09T16:56:36.224Z,12.13
2022-11-09T16:59:56.601Z,13.07
2022-11-09T17:03:17.220Z,12.70
2022-11-09T17:06:37.767Z,13.18
2022-11-09T17:09:58.741Z,13.15
2022-11-09T17:13:19.690Z,13.45
2022-11-09T17:16:42.225Z,12.18
2022-11-09T17:20:05.248Z,13.35
2022-11-09T17:23:26.130Z,11.10
2022-11-09T17:26:46.964Z,12.98
2022-11-09T17:30:08.317Z,13.60
2022-11-09T17:33:29.275Z,12.52
2022-11-09T17:37:03.573Z,12.60
2022-11-09T17:40:25.851Z,12.48
2022-11-09T17:43:47.239Z,12.70
2022-11-09T17:47:07.903Z,13.45
2022-11-09T17:50:28.662Z,12.93
2022-11-09T17:53:49.221Z,12.50
2022-11-09T17:57:10.164Z,13.52
2022-11-09T18:00:30.514Z,11.63
2022-11-09T18:03:51.426Z,12.15
2022-11-09T18:07:12.067Z,10.85
2022-11-09T18:10:33.073Z,11.82
2022-11-09T18:13:54.081Z,12.02
2022-11-09T18:17:14.850Z,10.63
2022-11-09T18:20:39.182Z,12.02
2022-11-09T18:24:00.523Z,11.50
2022-11-09T18:27:23.761Z,11.82
2022-11-09T18:30:48.341Z,11.10
2022-11-09T18:34:10.854Z,10.65
2022-11-09T18:37:35.036Z,11.23
2022-11-09T18:41:08.151Z,12.43
2022-11-09T18:44:28.819Z,12.32
2022-11-09T18:47:50.330Z,11.77
2022-11-09T18:51:11.753Z,11.48
2022-11-09T18:54:32.834Z,10.93
2022-11-09T18:57:53.520Z,10.15
2022-11-09T19:01:15.052Z,9.60
2022-11-09T19:04:36.234Z,11.60
2022-11-09T19:07:57.221Z,10.85
2022-11-09T19:11:18.038Z,11.10
2022-11-09T19:14:41.972Z,12.00
2022-11-09T19:18:02.749Z,11.55
2022-11-09T19:21:41.631Z,9.75
2022-11-09T19:25:02.308Z,11.30
2022-11-09T19:28:23.402Z,12.30
2022-11-09T19:31:45.513Z,10.65
2022-11-09T19:35:06.696Z,11.75
2022-11-09T19:38:27.541Z,9.73
2022-11-09T19:41:48.638Z,12.02
2022-11-09T19:45:12.142Z,11.88
2022-11-09T19:48:35.176Z,10.77
2022-11-09T19:51:56.404Z,12.82
2022-11-09T19:55:17.465Z,11.30
2022-11-09T19:58:38.396Z,12.18
2022-11-09T20:01:59.363Z,12.75
2022-11-09T20:05:19.869Z,11.77
2022-11-09T20:08:41.006Z,9.68
2022-11-09T20:12:20.455Z,11.63
2022-11-09T20:15:41.212Z,13.20
2022-11-09T20:19:03.087Z,10.60
2022-11-09T20:22:24.021Z,13.48
2022-11-09T20:25:44.696Z,14.23
2022-11-09T20:29:05.186Z,13.15
2022-11-09T20:32:25.988Z,14.23
2022-11-09T20:35:55.340Z,13.48
2022-11-09T20:39:16.178Z,12.40
2022-11-09T20:42:36.628Z,11.10
2022-11-09T20:46:02.620Z,13.35
2022-11-09T20:49:23.858Z,14.30
2022-11-09T20:52:44.869Z,14.88
2022-11-09T20:56:06.280Z,14.27
2022-11-09T20:59:27.330Z,13.43
2022-11-09T21:02:48.319Z,13.48
2022-11-09T21:06:10.041Z,11.57
2022-11-09T21:09:30.436Z,14.02
2022-11-09T21:12:55.547Z,13.65
2022-11-09T21:16:19.399Z,15.35
2022-11-09T21:19:39.989Z,14.50
2022-11-09T21:23:12.693Z,13.80
2022-11-09T21:26:51.856Z,12.45
2022-11-09T21:30:12.823Z,13.10
2022-11-09T21:33:33.822Z,14.77
2022-11-09T21:36:54.994Z,13.18
2022-11-09T21:40:15.669Z,14.40
2022-11-09T21:43:36.548Z,14.23
2022-11-09T21:46:57.998Z,12.32
2022-11-09T21:50:18.471Z,13.35
2022-11-09T21:53:39.594Z,12.02
2022-11-09T21:57:00.225Z,13.55
2022-11-09T22:00:21.293Z,13.88
2022-11-09T22:03:42.562Z,12.60
2022-11-09T22:07:03.622Z,14.18
2022-11-09T22:10:24.623Z,14.88
2022-11-09T22:14:04.156Z,13.18
2022-11-09T22:17:24.860Z,12.20
2022-11-09T22:20:55.534Z,13.50
2022-11-09T22:24:15.999Z,13.75
2022-11-09T22:27:36.979Z,11.82
2022-11-09T22:31:01.593Z,13.65
2022-11-09T22:34:22.494Z,14.15
2022-11-09T22:37:43.520Z,14.20
2022-11-09T22:41:06.814Z,11.32
2022-11-09T22:44:27.630Z,13.82
2022-11-09T22:47:48.342Z,13.80
2022-11-09T22:51:11.167Z,14.77
2022-11-09T22:54:31.904Z,12.90
2022-11-09T22:57:55.584Z,14.07
2022-11-09T23:01:18.906Z,12.93
2022-11-09T23:04:39.515Z,12.40
2022-11-09T23:08:00.132Z,11.35
2022-11-09T23:11:23.008Z,13.55
2022-11-09T23:15:02.299Z,12.13
2022-11-09T23:18:41.714Z,12.73
2022-11-09T23:22:02.409Z,11.75
2022-11-09T23:25:41.948Z,14.98
2022-11-09T23:29:02.699Z,13.50
2022-11-09T23:32:23.657Z,12.68
2022-11-09T23:35:44.736Z,12.48
2022-11-09T23:39:06.110Z,12.52
2022-11-09T23:42:26.946Z,11.90
2022-11-09T23:45:47.954Z,11.93
2022-11-09T23:49:08.763Z,11.45
2022-11-09T23:52:29.398Z,11.57
2022-11-09T23:55:50.277Z,11.82
2022-11-09T23:59:11.239Z,13.82
